sensor_id;sensor_type;location;lat;lon;timestamp;P1;durP1;ratioP1;P2;durP2;ratioP2
33421;SDS011;19763;55.798;37.782;2022-12-20T00:00:54;11.57;;;6.80;;
33421;SDS011;19763;55.798;37.782;2022-12-20T00:03:19;9.70;;;6.70;;
33421;SDS011;19763;55.798;37.782;2022-12-20T00:05:45;9.43;;;6.03;;
33421;SDS011;19763;55.798;37.782;2022-12-20T00:08:11;8.90;;;6.07;;
33421;SDS011;19763;55.798;37.782;2022-12-20T00:10:38;9.80;;;6.13;;
33421;SDS011;19763;55.798;37.782;2022-12-20T00:13:05;8.65;;;6.35;;
33421;SDS011;19763;55.798;37.782;2022-12-20T00:15:31;10.75;;;6.32;;
33421;SDS011;19763;55.798;37.782;2022-12-20T00:17:57;9.70;;;6.85;;
33421;SDS011;19763;55.798;37.782;2022-12-20T00:20:24;9.98;;;6.45;;
33421;SDS011;19763;55.798;37.782;2022-12-20T00:22:49;8.80;;;6.00;;
33421;SDS011;19763;55.798;37.782;2022-12-20T00:25:15;9.75;;;6.60;;
33421;SDS011;19763;55.798;37.782;2022-12-20T00:27:41;8.98;;;6.15;;
33421;SDS011;19763;55.798;37.782;2022-12-20T00:30:07;10.57;;;6.78;;
33421;SDS011;19763;55.798;37.782;2022-12-20T00:32:32;10.88;;;6.45;;
33421;SDS011;19763;55.798;37.782;2022-12-20T00:34:58;10.48;;;7.07;;
33421;SDS011;19763;55.798;37.782;2022-12-20T00:37:24;10.00;;;7.03;;
33421;SDS011;19763;55.798;37.782;2022-12-20T00:39:49;13.50;;;6.45;;
33421;SDS011;19763;55.798;37.782;2022-12-20T00:42:15;10.60;;;6.65;;
33421;SDS011;19763;55.798;37.782;2022-12-20T00:44:40;12.77;;;7.28;;
33421;SDS011;19763;55.798;37.782;2022-12-20T00:47:06;10.40;;;6.45;;
33421;SDS011;19763;55.798;37.782;2022-12-20T00:49:32;13.40;;;7.22;;
33421;SDS011;19763;55.798;37.782;2022-12-20T00:51:57;9.50;;;6.50;;
33421;SDS011;19763;55.798;37.782;2022-12-20T00:54:23;11.13;;;7.03;;
33421;SDS011;19763;55.798;37.782;2022-12-20T00:56:48;8.95;;;6.57;;
33421;SDS011;19763;55.798;37.782;2022-12-20T00:59:14;9.07;;;6.15;;
33421;SDS011;19763;55.798;37.782;2022-12-20T01:01:39;11.30;;;6.95;;
33421;SDS011;19763;55.798;37.782;2022-12-20T01:04:05;9.10;;;6.63;;
33421;SDS011;19763;55.798;37.782;2022-12-20T01:06:32;9.90;;;6.80;;
33421;SDS011;19763;55.798;37.782;2022-12-20T01:08:58;8.80;;;6.78;;
33421;SDS011;19763;55.798;37.782;2022-12-20T01:11:33;11.43;;;6.80;;
33421;SDS011;19763;55.798;37.782;2022-12-20T01:14:01;10.75;;;7.65;;
33421;SDS011;19763;55.798;37.782;2022-12-20T01:16:35;10.27;;;7.43;;
33421;SDS011;19763;55.798;37.782;2022-12-20T01:19:12;9.60;;;7.25;;
33421;SDS011;19763;55.798;37.782;2022-12-20T01:21:39;11.65;;;7.53;;
33421;SDS011;19763;55.798;37.782;2022-12-20T01:24:12;10.15;;;7.18;;
33421;SDS011;19763;55.798;37.782;2022-12-20T01:26:38;11.77;;;7.22;;
33421;SDS011;19763;55.798;37.782;2022-12-20T01:29:04;11.00;;;7.97;;
33421;SDS011;19763;55.798;37.782;2022-12-20T01:31:30;12.15;;;7.80;;
33421;SDS011;19763;55.798;37.782;2022-12-20T01:33:56;12.68;;;8.10;;
33421;SDS011;19763;55.798;37.782;2022-12-20T01:36:23;11.43;;;8.18;;
33421;SDS011;19763;55.798;37.782;2022-12-20T01:41:28;13.00;;;8.55;;
33421;SDS011;19763;55.798;37.782;2022-12-20T01:43:59;10.70;;;7.35;;
33421;SDS011;19763;55.798;37.782;2022-12-20T01:46:27;10.23;;;7.60;;
33421;SDS011;19763;55.798;37.782;2022-12-20T01:52:01;9.43;;;6.75;;
33421;SDS011;19763;55.798;37.782;2022-12-20T01:54:34;8.23;;;6.57;;
33421;SDS011;19763;55.798;37.782;2022-12-20T01:57:06;11.52;;;6.85;;
33421;SDS011;19763;55.798;37.782;2022-12-20T01:59:37;8.35;;;6.53;;
33421;SDS011;19763;55.798;37.782;2022-12-20T02:02:05;8.93;;;7.03;;
33421;SDS011;19763;55.798;37.782;2022-12-20T02:04:34;10.15;;;6.82;;
33421;SDS011;19763;55.798;37.782;2022-12-20T02:06:59;10.63;;;6.78;;
33421;SDS011;19763;55.798;37.782;2022-12-20T02:09:27;8.98;;;6.20;;
33421;SDS011;19763;55.798;37.782;2022-12-20T02:28:00;7.60;;;6.20;;
33421;SDS011;19763;55.798;37.782;2022-12-20T02:30:51;9.52;;;6.60;;
33421;SDS011;19763;55.798;37.782;2022-12-20T02:33:19;8.68;;;6.47;;
33421;SDS011;19763;55.798;37.782;2022-12-20T02:35:46;8.68;;;6.20;;
33421;SDS011;19763;55.798;37.782;2022-12-20T02:40:59;6.70;;;5.25;;
33421;SDS011;19763;55.798;37.782;2022-12-20T02:43:32;9.13;;;5.72;;
33421;SDS011;19763;55.798;37.782;2022-12-20T02:46:19;9.32;;;6.35;;
33421;SDS011;19763;55.798;37.782;2022-12-20T02:48:46;10.57;;;6.68;;
33421;SDS011;19763;55.798;37.782;2022-12-20T02:51:13;8.65;;;6.53;;
33421;SDS011;19763;55.798;37.782;2022-12-20T02:53:42;8.48;;;5.97;;
33421;SDS011;19763;55.798;37.782;2022-12-20T02:56:13;11.15;;;6.72;;
33421;SDS011;19763;55.798;37.782;2022-12-20T03:01:46;11.57;;;7.50;;
33421;SDS011;19763;55.798;37.782;2022-12-20T03:04:19;9.60;;;7.65;;
33421;SDS011;19763;55.798;37.782;2022-12-20T03:07:21;9.35;;;6.70;;
33421;SDS011;19763;55.798;37.782;2022-12-20T03:09:41;11.63;;;7.28;;
33421;SDS011;19763;55.798;37.782;2022-12-20T03:12:08;9.98;;;6.75;;
33421;SDS011;19763;55.798;37.782;2022-12-20T03:14:38;8.73;;;6.80;;
33421;SDS011;19763;55.798;37.782;2022-12-20T03:17:04;10.27;;;7.05;;
33421;SDS011;19763;55.798;37.782;2022-12-20T03:19:30;9.65;;;6.85;;
33421;SDS011;19763;55.798;37.782;2022-12-20T03:21:56;10.30;;;6.90;;
33421;SDS011;19763;55.798;37.782;2022-12-20T03:24:22;13.32;;;7.90;;
33421;SDS011;19763;55.798;37.782;2022-12-20T03:26:47;9.90;;;6.72;;
33421;SDS011;19763;55.798;37.782;2022-12-20T03:29:13;9.65;;;6.55;;
33421;SDS011;19763;55.798;37.782;2022-12-20T03:31:38;8.73;;;6.43;;
33421;SDS011;19763;55.798;37.782;2022-12-20T03:34:04;11.48;;;6.43;;
33421;SDS011;19763;55.798;37.782;2022-12-20T03:36:30;9.70;;;7.07;;
33421;SDS011;19763;55.798;37.782;2022-12-20T03:38:56;11.35;;;7.13;;
33421;SDS011;19763;55.798;37.782;2022-12-20T03:41:22;12.18;;;7.22;;
33421;SDS011;19763;55.798;37.782;2022-12-20T03:43:48;11.45;;;7.22;;
33421;SDS011;19763;55.798;37.782;2022-12-20T03:46:14;9.60;;;7.00;;
33421;SDS011;19763;55.798;37.782;2022-12-20T03:48:39;11.43;;;7.45;;
33421;SDS011;19763;55.798;37.782;2022-12-20T03:51:05;11.13;;;7.72;;
33421;SDS011;19763;55.798;37.782;2022-12-20T03:53:31;13.57;;;7.80;;
33421;SDS011;19763;55.798;37.782;2022-12-20T03:55:56;9.65;;;6.88;;
33421;SDS011;19763;55.798;37.782;2022-12-20T03:58:22;13.05;;;7.63;;
33421;SDS011;19763;55.798;37.782;2022-12-20T04:00:48;11.10;;;7.45;;
33421;SDS011;19763;55.798;37.782;2022-12-20T04:03:14;14.95;;;8.13;;
33421;SDS011;19763;55.798;37.782;2022-12-20T04:05:39;11.80;;;8.02;;
33421;SDS011;19763;55.798;37.782;2022-12-20T04:08:05;12.57;;;7.93;;
33421;SDS011;19763;55.798;37.782;2022-12-20T04:10:30;11.88;;;7.72;;
33421;SDS011;19763;55.798;37.782;2022-12-20T04:12:56;13.30;;;7.63;;
33421;SDS011;19763;55.798;37.782;2022-12-20T04:15:21;13.20;;;8.13;;
33421;SDS011;19763;55.798;37.782;2022-12-20T04:17:47;14.57;;;9.18;;
33421;SDS011;19763;55.798;37.782;2022-12-20T04:20:13;12.10;;;7.97;;
33421;SDS011;19763;55.798;37.782;2022-12-20T04:22:46;12.50;;;8.70;;
33421;SDS011;19763;55.798;37.782;2022-12-20T04:25:12;14.60;;;8.38;;
33421;SDS011;19763;55.798;37.782;2022-12-20T04:27:38;14.45;;;8.52;;
33421;SDS011;19763;55.798;37.782;2022-12-20T04:30:04;13.05;;;8.45;;
33421;SDS011;19763;55.798;37.782;2022-12-20T04:32:30;12.98;;;8.18;;
33421;SDS011;19763;55.798;37.782;2022-12-20T04:34:55;15.32;;;8.93;;
33421;SDS011;19763;55.798;37.782;2022-12-20T04:37:21;13.73;;;8.40;;
33421;SDS011;19763;55.798;37.782;2022-12-20T04:39:46;15.40;;;9.00;;
33421;SDS011;19763;55.798;37.782;2022-12-20T04:42:12;14.40;;;8.73;;
33421;SDS011;19763;55.798;37.782;2022-12-20T04:44:37;15.50;;;8.85;;
33421;SDS011;19763;55.798;37.782;2022-12-20T04:47:03;15.38;;;9.27;;
33421;SDS011;19763;55.798;37.782;2022-12-20T04:49:29;16.10;;;9.40;;
33421;SDS011;19763;55.798;37.782;2022-12-20T04:51:54;13.20;;;8.80;;
33421;SDS011;19763;55.798;37.782;2022-12-20T04:54:39;14.20;;;9.18;;
33421;SDS011;19763;55.798;37.782;2022-12-20T04:57:05;14.98;;;9.45;;
33421;SDS011;19763;55.798;37.782;2022-12-20T04:59:31;13.73;;;9.43;;
33421;SDS011;19763;55.798;37.782;2022-12-20T05:01:56;15.25;;;9.02;;
33421;SDS011;19763;55.798;37.782;2022-12-20T05:04:22;15.98;;;9.45;;
33421;SDS011;19763;55.798;37.782;2022-12-20T05:06:47;15.75;;;9.40;;
33421;SDS011;19763;55.798;37.782;2022-12-20T05:09:13;15.30;;;8.73;;
33421;SDS011;19763;55.798;37.782;2022-12-20T05:11:38;16.55;;;9.35;;
33421;SDS011;19763;55.798;37.782;2022-12-20T05:14:04;16.48;;;9.65;;
33421;SDS011;19763;55.798;37.782;2022-12-20T05:16:29;15.02;;;9.68;;
33421;SDS011;19763;55.798;37.782;2022-12-20T05:18:55;15.60;;;9.82;;
33421;SDS011;19763;55.798;37.782;2022-12-20T05:21:20;15.73;;;9.80;;
33421;SDS011;19763;55.798;37.782;2022-12-20T05:24:05;17.45;;;9.77;;
33421;SDS011;19763;55.798;37.782;2022-12-20T05:26:49;16.13;;;9.93;;
33421;SDS011;19763;55.798;37.782;2022-12-20T05:29:15;16.17;;;9.95;;
33421;SDS011;19763;55.798;37.782;2022-12-20T05:31:40;16.67;;;10.38;;
33421;SDS011;19763;55.798;37.782;2022-12-20T05:34:06;17.38;;;10.13;;
33421;SDS011;19763;55.798;37.782;2022-12-20T05:36:31;14.98;;;9.90;;
33421;SDS011;19763;55.798;37.782;2022-12-20T05:38:57;16.60;;;10.23;;
33421;SDS011;19763;55.798;37.782;2022-12-20T05:41:23;15.30;;;9.75;;
33421;SDS011;19763;55.798;37.782;2022-12-20T05:43:48;14.48;;;10.13;;
33421;SDS011;19763;55.798;37.782;2022-12-20T05:46:14;15.15;;;9.55;;
33421;SDS011;19763;55.798;37.782;2022-12-20T05:48:39;18.00;;;10.75;;
33421;SDS011;19763;55.798;37.782;2022-12-20T05:51:05;17.70;;;9.90;;
33421;SDS011;19763;55.798;37.782;2022-12-20T05:53:30;17.70;;;10.10;;
33421;SDS011;19763;55.798;37.782;2022-12-20T05:55:56;13.30;;;9.18;;
33421;SDS011;19763;55.798;37.782;2022-12-20T05:58:22;15.40;;;9.52;;
33421;SDS011;19763;55.798;37.782;2022-12-20T06:00:48;15.77;;;10.07;;
33421;SDS011;19763;55.798;37.782;2022-12-20T06:03:14;17.15;;;10.60;;
33421;SDS011;19763;55.798;37.782;2022-12-20T06:05:40;16.73;;;9.48;;
33421;SDS011;19763;55.798;37.782;2022-12-20T06:08:07;18.25;;;10.55;;
33421;SDS011;19763;55.798;37.782;2022-12-20T06:10:34;16.25;;;10.75;;
33421;SDS011;19763;55.798;37.782;2022-12-20T06:13:03;16.00;;;8.90;;
33421;SDS011;19763;55.798;37.782;2022-12-20T06:15:29;14.90;;;9.35;;
33421;SDS011;19763;55.798;37.782;2022-12-20T06:17:55;17.75;;;10.15;;
33421;SDS011;19763;55.798;37.782;2022-12-20T06:20:21;15.70;;;9.25;;
33421;SDS011;19763;55.798;37.782;2022-12-20T06:22:46;16.92;;;10.07;;
33421;SDS011;19763;55.798;37.782;2022-12-20T06:25:12;15.25;;;9.68;;
33421;SDS011;19763;55.798;37.782;2022-12-20T06:27:39;15.82;;;10.07;;
33421;SDS011;19763;55.798;37.782;2022-12-20T06:30:05;20.08;;;10.52;;
33421;SDS011;19763;55.798;37.782;2022-12-20T06:32:32;17.73;;;11.10;;
33421;SDS011;19763;55.798;37.782;2022-12-20T06:34:58;18.88;;;10.45;;
33421;SDS011;19763;55.798;37.782;2022-12-20T06:37:23;17.02;;;11.13;;
33421;SDS011;19763;55.798;37.782;2022-12-20T06:39:49;14.48;;;9.05;;
33421;SDS011;19763;55.798;37.782;2022-12-20T06:42:14;16.10;;;10.55;;
33421;SDS011;19763;55.798;37.782;2022-12-20T06:44:40;18.33;;;9.65;;
33421;SDS011;19763;55.798;37.782;2022-12-20T06:47:06;13.43;;;8.55;;
33421;SDS011;19763;55.798;37.782;2022-12-20T06:49:32;16.60;;;9.90;;
33421;SDS011;19763;55.798;37.782;2022-12-20T06:51:58;13.13;;;8.88;;
33421;SDS011;19763;55.798;37.782;2022-12-20T06:54:23;18.88;;;9.82;;
33421;SDS011;19763;55.798;37.782;2022-12-20T06:56:49;17.08;;;9.43;;
33421;SDS011;19763;55.798;37.782;2022-12-20T06:59:14;14.02;;;9.07;;
33421;SDS011;19763;55.798;37.782;2022-12-20T07:01:40;16.48;;;9.88;;
33421;SDS011;19763;55.798;37.782;2022-12-20T07:04:05;14.88;;;8.73;;
33421;SDS011;19763;55.798;37.782;2022-12-20T07:06:31;15.27;;;9.55;;
33421;SDS011;19763;55.798;37.782;2022-12-20T07:08:56;15.20;;;9.35;;
33421;SDS011;19763;55.798;37.782;2022-12-20T07:11:22;14.90;;;8.77;;
33421;SDS011;19763;55.798;37.782;2022-12-20T07:13:48;11.90;;;7.80;;
33421;SDS011;19763;55.798;37.782;2022-12-20T07:16:14;12.27;;;7.50;;
33421;SDS011;19763;55.798;37.782;2022-12-20T07:18:40;11.07;;;7.30;;
33421;SDS011;19763;55.798;37.782;2022-12-20T07:21:05;13.48;;;8.07;;
33421;SDS011;19763;55.798;37.782;2022-12-20T07:23:31;12.00;;;7.95;;
33421;SDS011;19763;55.798;37.782;2022-12-20T07:25:58;14.13;;;8.48;;
33421;SDS011;19763;55.798;37.782;2022-12-20T07:28:25;11.73;;;8.13;;
33421;SDS011;19763;55.798;37.782;2022-12-20T07:30:52;13.63;;;7.63;;
33421;SDS011;19763;55.798;37.782;2022-12-20T07:33:18;13.38;;;8.00;;
33421;SDS011;19763;55.798;37.782;2022-12-20T07:35:44;12.68;;;7.50;;
33421;SDS011;19763;55.798;37.782;2022-12-20T07:38:13;11.57;;;7.50;;
33421;SDS011;19763;55.798;37.782;2022-12-20T07:40:40;14.98;;;7.47;;
33421;SDS011;19763;55.798;37.782;2022-12-20T07:43:07;12.50;;;7.65;;
33421;SDS011;19763;55.798;37.782;2022-12-20T07:45:35;11.07;;;6.60;;
33421;SDS011;19763;55.798;37.782;2022-12-20T07:48:04;10.98;;;7.00;;
33421;SDS011;19763;55.798;37.782;2022-12-20T07:50:30;12.10;;;7.05;;
33421;SDS011;19763;55.798;37.782;2022-12-20T07:52:57;12.63;;;6.90;;
33421;SDS011;19763;55.798;37.782;2022-12-20T07:55:24;11.90;;;6.70;;
33421;SDS011;19763;55.798;37.782;2022-12-20T07:57:51;13.80;;;8.00;;
33421;SDS011;19763;55.798;37.782;2022-12-20T08:00:20;11.15;;;6.75;;
33421;SDS011;19763;55.798;37.782;2022-12-20T08:02:48;14.30;;;6.95;;
33421;SDS011;19763;55.798;37.782;2022-12-20T08:05:19;11.98;;;7.00;;
33421;SDS011;19763;55.798;37.782;2022-12-20T08:07:45;11.15;;;6.78;;
33421;SDS011;19763;55.798;37.782;2022-12-20T08:10:12;12.75;;;6.65;;
33421;SDS011;19763;55.798;37.782;2022-12-20T08:12:41;11.63;;;6.72;;
33421;SDS011;19763;55.798;37.782;2022-12-20T08:15:09;9.95;;;6.60;;
33421;SDS011;19763;55.798;37.782;2022-12-20T08:17:35;10.55;;;6.35;;
33421;SDS011;19763;55.798;37.782;2022-12-20T08:20:01;10.25;;;6.55;;
33421;SDS011;19763;55.798;37.782;2022-12-20T08:22:28;10.43;;;6.82;;
33421;SDS011;19763;55.798;37.782;2022-12-20T08:24:54;9.85;;;6.50;;
33421;SDS011;19763;55.798;37.782;2022-12-20T08:27:19;9.35;;;6.63;;
33421;SDS011;19763;55.798;37.782;2022-12-20T08:29:45;11.75;;;6.43;;
33421;SDS011;19763;55.798;37.782;2022-12-20T08:32:10;11.60;;;6.85;;
33421;SDS011;19763;55.798;37.782;2022-12-20T08:34:38;11.48;;;6.47;;
33421;SDS011;19763;55.798;37.782;2022-12-20T08:37:04;9.63;;;6.35;;
33421;SDS011;19763;55.798;37.782;2022-12-20T08:39:29;10.90;;;6.05;;
33421;SDS011;19763;55.798;37.782;2022-12-20T08:41:55;11.82;;;6.85;;
33421;SDS011;19763;55.798;37.782;2022-12-20T08:44:20;9.07;;;5.47;;
33421;SDS011;19763;55.798;37.782;2022-12-20T08:46:46;8.85;;;4.90;;
33421;SDS011;19763;55.798;37.782;2022-12-20T08:49:11;7.38;;;4.63;;
33421;SDS011;19763;55.798;37.782;2022-12-20T08:51:38;6.05;;;3.85;;
33421;SDS011;19763;55.798;37.782;2022-12-20T08:54:03;6.40;;;4.40;;
33421;SDS011;19763;55.798;37.782;2022-12-20T08:56:29;6.25;;;4.00;;
33421;SDS011;19763;55.798;37.782;2022-12-20T08:58:54;6.45;;;4.13;;
33421;SDS011;19763;55.798;37.782;2022-12-20T09:01:20;6.95;;;4.50;;
33421;SDS011;19763;55.798;37.782;2022-12-20T09:03:47;7.03;;;4.15;;
33421;SDS011;19763;55.798;37.782;2022-12-20T09:06:14;7.78;;;5.00;;
33421;SDS011;19763;55.798;37.782;2022-12-20T09:08:44;6.25;;;3.78;;
33421;SDS011;19763;55.798;37.782;2022-12-20T09:11:12;9.05;;;4.45;;
33421;SDS011;19763;55.798;37.782;2022-12-20T09:13:40;6.22;;;3.63;;
33421;SDS011;19763;55.798;37.782;2022-12-20T09:16:07;6.93;;;4.10;;
33421;SDS011;19763;55.798;37.782;2022-12-20T09:18:34;7.32;;;4.63;;
33421;SDS011;19763;55.798;37.782;2022-12-20T09:21:03;7.10;;;4.63;;
33421;SDS011;19763;55.798;37.782;2022-12-20T09:23:31;9.55;;;4.95;;
33421;SDS011;19763;55.798;37.782;2022-12-20T09:26:04;5.97;;;4.30;;
33421;SDS011;19763;55.798;37.782;2022-12-20T09:28:35;6.90;;;4.38;;
33421;SDS011;19763;55.798;37.782;2022-12-20T09:31:01;6.38;;;3.90;;
33421;SDS011;19763;55.798;37.782;2022-12-20T09:33:29;5.60;;;3.88;;
33421;SDS011;19763;55.798;37.782;2022-12-20T09:35:56;8.75;;;4.93;;
33421;SDS011;19763;55.798;37.782;2022-12-20T09:38:22;6.45;;;4.70;;
33421;SDS011;19763;55.798;37.782;2022-12-20T09:40:50;6.72;;;4.38;;
33421;SDS011;19763;55.798;37.782;2022-12-20T09:43:19;7.63;;;4.65;;
33421;SDS011;19763;55.798;37.782;2022-12-20T09:45:46;7.22;;;4.50;;
33421;SDS011;19763;55.798;37.782;2022-12-20T09:48:16;7.97;;;4.60;;
33421;SDS011;19763;55.798;37.782;2022-12-20T09:59:02;8.35;;;5.05;;
33421;SDS011;19763;55.798;37.782;2022-12-20T10:01:31;6.45;;;5.05;;
33421;SDS011;19763;55.798;37.782;2022-12-20T10:04:00;7.07;;;4.38;;
33421;SDS011;19763;55.798;37.782;2022-12-20T10:09:04;7.80;;;4.90;;
33421;SDS011;19763;55.798;37.782;2022-12-20T10:23:14;8.77;;;5.10;;
33421;SDS011;19763;55.798;37.782;2022-12-20T10:25:53;8.00;;;4.85;;
33421;SDS011;19763;55.798;37.782;2022-12-20T10:28:30;7.78;;;5.10;;
33421;SDS011;19763;55.798;37.782;2022-12-20T10:31:00;7.65;;;5.32;;
33421;SDS011;19763;55.798;37.782;2022-12-20T10:33:29;8.60;;;5.55;;
33421;SDS011;19763;55.798;37.782;2022-12-20T10:35:55;7.88;;;5.35;;
33421;SDS011;19763;55.798;37.782;2022-12-20T10:38:46;9.60;;;5.13;;
33421;SDS011;19763;55.798;37.782;2022-12-20T10:41:15;8.32;;;5.72;;
33421;SDS011;19763;55.798;37.782;2022-12-20T10:44:17;8.55;;;6.13;;
33421;SDS011;19763;55.798;37.782;2022-12-20T10:46:50;9.65;;;6.03;;
33421;SDS011;19763;55.798;37.782;2022-12-20T10:49:32;8.05;;;5.32;;
33421;SDS011;19763;55.798;37.782;2022-12-20T10:54:33;7.45;;;5.00;;
33421;SDS011;19763;55.798;37.782;2022-12-20T11:04:59;10.75;;;6.15;;
33421;SDS011;19763;55.798;37.782;2022-12-20T11:07:31;11.43;;;5.43;;
33421;SDS011;19763;55.798;37.782;2022-12-20T11:10:02;8.93;;;5.88;;
33421;SDS011;19763;55.798;37.782;2022-12-20T11:12:56;9.10;;;5.97;;
33421;SDS011;19763;55.798;37.782;2022-12-20T11:15:28;9.00;;;6.22;;
33421;SDS011;19763;55.798;37.782;2022-12-20T11:17:58;10.77;;;6.10;;
33421;SDS011;19763;55.798;37.782;2022-12-20T11:28:39;11.75;;;6.63;;
33421;SDS011;19763;55.798;37.782;2022-12-20T11:31:19;11.88;;;6.75;;
33421;SDS011;19763;55.798;37.782;2022-12-20T11:34:34;9.35;;;4.93;;
33421;SDS011;19763;55.798;37.782;2022-12-20T11:37:24;8.07;;;5.20;;
33421;SDS011;19763;55.798;37.782;2022-12-20T11:47:54;9.85;;;5.40;;
33421;SDS011;19763;55.798;37.782;2022-12-20T11:50:52;11.05;;;5.68;;
33421;SDS011;19763;55.798;37.782;2022-12-20T11:53:37;14.15;;;6.63;;
33421;SDS011;19763;55.798;37.782;2022-12-20T11:56:09;8.65;;;4.97;;
33421;SDS011;19763;55.798;37.782;2022-12-20T12:01:21;7.05;;;5.00;;
33421;SDS011;19763;55.798;37.782;2022-12-20T12:07:03;7.97;;;5.25;;
33421;SDS011;19763;55.798;37.782;2022-12-20T12:09:41;7.32;;;4.95;;
33421;SDS011;19763;55.798;37.782;2022-12-20T12:15:05;12.05;;;5.10;;
33421;SDS011;19763;55.798;37.782;2022-12-20T12:25:54;8.57;;;5.85;;
33421;SDS011;19763;55.798;37.782;2022-12-20T12:28:20;9.52;;;5.60;;
33421;SDS011;19763;55.798;37.782;2022-12-20T12:30:55;8.50;;;5.50;;
33421;SDS011;19763;55.798;37.782;2022-12-20T12:33:26;10.05;;;6.38;;
33421;SDS011;19763;55.798;37.782;2022-12-20T12:38:59;8.93;;;6.03;;
33421;SDS011;19763;55.798;37.782;2022-12-20T12:44:51;8.82;;;5.65;;
33421;SDS011;19763;55.798;37.782;2022-12-20T12:50:05;10.45;;;6.22;;
33421;SDS011;19763;55.798;37.782;2022-12-20T12:52:42;10.70;;;6.28;;
33421;SDS011;19763;55.798;37.782;2022-12-20T13:00:47;10.90;;;6.07;;
33421;SDS011;19763;55.798;37.782;2022-12-20T13:03:33;12.90;;;7.10;;
33421;SDS011;19763;55.798;37.782;2022-12-20T13:11:31;9.57;;;5.50;;
33421;SDS011;19763;55.798;37.782;2022-12-20T13:16:49;9.32;;;5.90;;
33421;SDS011;19763;55.798;37.782;2022-12-20T13:21:44;9.25;;;5.53;;
33421;SDS011;19763;55.798;37.782;2022-12-20T13:29:50;9.63;;;5.93;;
33421;SDS011;19763;55.798;37.782;2022-12-20T13:37:54;7.72;;;4.85;;
33421;SDS011;19763;55.798;37.782;2022-12-20T13:48:27;9.75;;;6.07;;
33421;SDS011;19763;55.798;37.782;2022-12-20T13:50:57;8.48;;;5.68;;
33421;SDS011;19763;55.798;37.782;2022-12-20T13:53:24;10.50;;;6.07;;
33421;SDS011;19763;55.798;37.782;2022-12-20T13:55:51;9.15;;;5.32;;
33421;SDS011;19763;55.798;37.782;2022-12-20T13:58:19;10.10;;;5.70;;
33421;SDS011;19763;55.798;37.782;2022-12-20T14:00:48;8.95;;;5.43;;
33421;SDS011;19763;55.798;37.782;2022-12-20T14:03:27;8.00;;;5.70;;
33421;SDS011;19763;55.798;37.782;2022-12-20T14:06:01;7.22;;;5.40;;
33421;SDS011;19763;55.798;37.782;2022-12-20T14:08:35;10.30;;;5.57;;
33421;SDS011;19763;55.798;37.782;2022-12-20T14:11:06;8.55;;;5.25;;
33421;SDS011;19763;55.798;37.782;2022-12-20T14:13:33;8.68;;;5.63;;
33421;SDS011;19763;55.798;37.782;2022-12-20T14:16:05;10.63;;;5.57;;
33421;SDS011;19763;55.798;37.782;2022-12-20T14:21:25;10.48;;;5.88;;
33421;SDS011;19763;55.798;37.782;2022-12-20T14:23:53;9.98;;;5.32;;
33421;SDS011;19763;55.798;37.782;2022-12-20T14:26:25;9.38;;;5.72;;
33421;SDS011;19763;55.798;37.782;2022-12-20T14:28:56;9.63;;;5.93;;
33421;SDS011;19763;55.798;37.782;2022-12-20T14:33:48;10.80;;;5.55;;
33421;SDS011;19763;55.798;37.782;2022-12-20T14:38:44;11.82;;;5.72;;
33421;SDS011;19763;55.798;37.782;2022-12-20T14:46:45;13.38;;;5.72;;
33421;SDS011;19763;55.798;37.782;2022-12-20T14:49:29;8.00;;;5.45;;
33421;SDS011;19763;55.798;37.782;2022-12-20T14:54:35;9.10;;;5.82;;
33421;SDS011;19763;55.798;37.782;2022-12-20T14:57:25;8.57;;;5.28;;
33421;SDS011;19763;55.798;37.782;2022-12-20T15:05:07;10.77;;;5.50;;
33421;SDS011;19763;55.798;37.782;2022-12-20T15:10:37;8.95;;;5.97;;
33421;SDS011;19763;55.798;37.782;2022-12-20T15:13:09;8.82;;;5.25;;
33421;SDS011;19763;55.798;37.782;2022-12-20T15:15:37;10.85;;;6.55;;
33421;SDS011;19763;55.798;37.782;2022-12-20T15:18:09;12.75;;;6.47;;
33421;SDS011;19763;55.798;37.782;2022-12-20T15:20:39;8.43;;;5.70;;
33421;SDS011;19763;55.798;37.782;2022-12-20T15:23:39;10.50;;;6.22;;
33421;SDS011;19763;55.798;37.782;2022-12-20T15:25:58;9.70;;;6.50;;
33421;SDS011;19763;55.798;37.782;2022-12-20T15:28:25;9.70;;;6.60;;
33421;SDS011;19763;55.798;37.782;2022-12-20T15:30:51;9.15;;;6.13;;
33421;SDS011;19763;55.798;37.782;2022-12-20T15:33:22;10.10;;;5.88;;
33421;SDS011;19763;55.798;37.782;2022-12-20T15:35:50;10.75;;;6.15;;
33421;SDS011;19763;55.798;37.782;2022-12-20T15:38:24;8.55;;;5.25;;
33421;SDS011;19763;55.798;37.782;2022-12-20T15:40:55;9.73;;;6.25;;
33421;SDS011;19763;55.798;37.782;2022-12-20T15:43:28;10.27;;;7.00;;
33421;SDS011;19763;55.798;37.782;2022-12-20T15:46:00;10.27;;;5.82;;
33421;SDS011;19763;55.798;37.782;2022-12-20T15:48:26;9.07;;;5.88;;
33421;SDS011;19763;55.798;37.782;2022-12-20T15:50:52;11.68;;;6.82;;
33421;SDS011;19763;55.798;37.782;2022-12-20T15:53:24;10.38;;;6.03;;
33421;SDS011;19763;55.798;37.782;2022-12-20T15:55:56;9.52;;;6.18;;
33421;SDS011;19763;55.798;37.782;2022-12-20T15:58:23;9.68;;;6.25;;
33421;SDS011;19763;55.798;37.782;2022-12-20T16:00:49;9.93;;;6.95;;
33421;SDS011;19763;55.798;37.782;2022-12-20T16:03:22;9.57;;;6.63;;
33421;SDS011;19763;55.798;37.782;2022-12-20T16:05:50;10.60;;;6.57;;
33421;SDS011;19763;55.798;37.782;2022-12-20T16:08:16;10.40;;;6.45;;
33421;SDS011;19763;55.798;37.782;2022-12-20T16:10:45;10.30;;;6.43;;
33421;SDS011;19763;55.798;37.782;2022-12-20T16:13:15;10.88;;;6.60;;
33421;SDS011;19763;55.798;37.782;2022-12-20T16:15:50;12.10;;;6.68;;
33421;SDS011;19763;55.798;37.782;2022-12-20T16:18:16;11.02;;;7.07;;
33421;SDS011;19763;55.798;37.782;2022-12-20T16:20:43;11.05;;;6.30;;
33421;SDS011;19763;55.798;37.782;2022-12-20T16:23:19;11.00;;;7.05;;
33421;SDS011;19763;55.798;37.782;2022-12-20T16:25:48;11.27;;;6.85;;
33421;SDS011;19763;55.798;37.782;2022-12-20T16:28:14;11.30;;;6.72;;
33421;SDS011;19763;55.798;37.782;2022-12-20T16:30:40;12.00;;;6.78;;
33421;SDS011;19763;55.798;37.782;2022-12-20T16:33:10;11.35;;;7.32;;
33421;SDS011;19763;55.798;37.782;2022-12-20T16:35:43;10.15;;;6.95;;
33421;SDS011;19763;55.798;37.782;2022-12-20T16:38:08;10.65;;;7.15;;
33421;SDS011;19763;55.798;37.782;2022-12-20T16:40:34;11.30;;;7.53;;
33421;SDS011;19763;55.798;37.782;2022-12-20T16:42:59;9.82;;;6.47;;
33421;SDS011;19763;55.798;37.782;2022-12-20T16:45:26;13.35;;;7.55;;
33421;SDS011;19763;55.798;37.782;2022-12-20T16:47:53;10.63;;;7.07;;
33421;SDS011;19763;55.798;37.782;2022-12-20T16:50:20;12.80;;;7.32;;
33421;SDS011;19763;55.798;37.782;2022-12-20T16:52:46;11.20;;;7.18;;
33421;SDS011;19763;55.798;37.782;2022-12-20T16:55:18;12.32;;;7.78;;
33421;SDS011;19763;55.798;37.782;2022-12-20T16:57:47;10.82;;;7.30;;
33421;SDS011;19763;55.798;37.782;2022-12-20T17:00:23;16.90;;;11.57;;
33421;SDS011;19763;55.798;37.782;2022-12-20T17:02:51;12.55;;;8.35;;
33421;SDS011;19763;55.798;37.782;2022-12-20T17:05:20;12.27;;;7.35;;
33421;SDS011;19763;55.798;37.782;2022-12-20T17:07:46;10.80;;;7.00;;
33421;SDS011;19763;55.798;37.782;2022-12-20T17:10:12;12.60;;;7.95;;
33421;SDS011;19763;55.798;37.782;2022-12-20T17:12:38;12.95;;;7.53;;
33421;SDS011;19763;55.798;37.782;2022-12-20T17:15:04;12.02;;;8.55;;
33421;SDS011;19763;55.798;37.782;2022-12-20T17:17:30;11.45;;;7.63;;